»·PEaware :: N937WB L52-L88

N937WB :: L52-L88

FLIGHT INFORMATION

Flight Status: Arrived
Operator: Privately registered:
United States
More flights under this callsign
Pilot: Michael B. (45511)
Aircraft: BEECH AIRCRAFT BONANZA
(BE36)
More flights by this aircraft type
Origin: L52 Oceano Co
United States
Destination: L88 New Cuyama
United States
More flights between these airports :: More routes between these airports
Route: GLJ
File this flight plan on PilotEdge
Remarks:
Altitude:
(Current/Filed)
7,000ft
Speed:
(Current/Filed)
170kts
Departed: 01-Nov-23 06:49 AM
Arrived: 01-Nov-23 07:23 AM
Distance/Time
Traveled:
47nm/0:34
Distance/Time
To Go:
Arrived

Flight Plot

Page will automatically refresh every two minutes.

Flight plan parsing failed; only flown route is shown


Map Options




Map Legend


Flown Route
Filed Route
Departure Airport
Arrival Airport
Navaid (VOR, NDB)
Fix

Horizontal Profiles

Position Reports

Time Latitude Longitude Heading Altitude Ground
Speed
01-Nov-23 06:42 35.102147 -120.622311 16 19ft 0kts
01-Nov-23 06:43 35.102147 -120.622311 16 19ft 0kts
01-Nov-23 06:44 35.102147 -120.622311 16 19ft 0kts
01-Nov-23 06:45 35.102147 -120.622311 16 19ft 0kts
01-Nov-23 06:46 35.101776 -120.622317 206 20ft 11kts
01-Nov-23 06:47 35.099807 -120.620050 129 19ft 0kts
01-Nov-23 06:48 35.100541 -120.620572 302 19ft 44kts
01-Nov-23 06:49 35.115641 -120.645636 305 677ft 99kts
01-Nov-23 06:50 35.099618 -120.648659 150 1571ft 84kts
01-Nov-23 06:51 35.075244 -120.635714 151 2807ft 98kts
01-Nov-23 06:52 35.050075 -120.622022 151 4022ft 100kts
01-Nov-23 06:53 35.025514 -120.606204 137 5142ft 101kts
01-Nov-23 06:54 35.000131 -120.580298 136 6111ft 128kts
01-Nov-23 06:55 34.973075 -120.551878 136 7055ft 129kts
01-Nov-23 06:57 34.950932 -120.512764 90 7096ft 154kts
01-Nov-23 06:58 34.948912 -120.459544 87 7094ft 158kts
01-Nov-23 06:59 34.948894 -120.404527 87 6847ft 168kts
01-Nov-23 07:00 34.949055 -120.346611 87 6475ft 172kts
01-Nov-23 07:01 34.949345 -120.287940 87 6086ft 175kts
01-Nov-23 07:02 34.949823 -120.228458 87 5699ft 175kts
01-Nov-23 07:03 34.950494 -120.168979 87 5315ft 175kts
01-Nov-23 07:04 34.951577 -120.109249 87 4945ft 175kts
01-Nov-23 07:05 34.953145 -120.050032 87 4542ft 171kts
01-Nov-23 07:06 34.939468 -119.994988 110 4149ft 170kts
01-Nov-23 07:07 34.923177 -119.944976 109 4512ft 145kts
01-Nov-23 07:08 34.909019 -119.902362 109 5350ft 129kts
01-Nov-23 07:09 34.894414 -119.859523 111 5722ft 151kts
01-Nov-23 07:10 34.877434 -119.808914 110 5726ft 165kts
01-Nov-23 07:11 34.864120 -119.755580 89 5682ft 170kts
01-Nov-23 07:12 34.863187 -119.695790 90 5209ft 178kts
01-Nov-23 07:13 34.862392 -119.635497 90 4718ft 178kts
01-Nov-23 07:14 34.889181 -119.597443 5 4228ft 183kts
01-Nov-23 07:15 34.940371 -119.593726 5 3746ft 185kts
01-Nov-23 07:16 34.988929 -119.596014 317 4015ft 164kts
01-Nov-23 07:17 35.005805 -119.651560 269 3724ft 181kts
01-Nov-23 07:18 35.001223 -119.711426 265 3629ft 172kts
01-Nov-23 07:19 35.001268 -119.765716 233 3362ft 173kts
01-Nov-23 07:20 34.958019 -119.768879 149 2676ft 150kts
01-Nov-23 07:21 34.946632 -119.727074 95 2969ft 136kts
01-Nov-23 07:22 34.938159 -119.681136 116 2206ft 53kts
01-Nov-23 07:23 34.939395 -119.684306 330 2194ft 0kts
01-Nov-23 07:23 34.939955 -119.685683 296 2186ft 45kts
01-Nov-23 07:25 34.943767 -119.691045 354 2156ft 0kts
01-Nov-23 07:26 34.943767 -119.691046 354 2156ft 0kts
01-Nov-23 07:27 34.943767 -119.691046 354 2156ft 0kts
01-Nov-23 07:28 34.943767 -119.691046 354 2156ft 0kts
01-Nov-23 07:28 34.943767 -119.691046 354 2156ft 0kts
01-Nov-23 07:29 34.943767 -119.691046 354 2156ft 0kts
01-Nov-23 07:30 34.943767 -119.691046 354 2156ft 0kts
01-Nov-23 07:32 34.943767 -119.691046 354 2156ft 0kts
01-Nov-23 07:33 34.943767 -119.691046 354 2156ft 0kts
01-Nov-23 07:33 34.943767 -119.691046 354 2156ft 0kts
01-Nov-23 07:34 34.943767 -119.691046 354 2156ft 0kts
01-Nov-23 07:35 34.943767 -119.691046 354 2156ft 0kts
01-Nov-23 07:36 34.943767 -119.691046 354 2156ft 0kts

Navigation Log

Ident Type
Flight plan parsing failed, navigation log unavailable